createdAt,value
2023-02-02T00:01:35.384Z,4.87
2023-02-02T00:04:03.356Z,4.90
2023-02-02T00:06:31.816Z,4.90
2023-02-02T00:09:00.865Z,4.91
2023-02-02T00:11:28.904Z,4.92
2023-02-02T00:13:56.831Z,4.89
2023-02-02T00:16:27.633Z,4.89
2023-02-02T00:18:56.988Z,4.87
2023-02-02T00:21:24.964Z,4.89
2023-02-02T00:23:52.898Z,4.87
2023-02-02T00:26:20.958Z,4.87
2023-02-02T00:28:49.084Z,4.85
2023-02-02T00:31:16.982Z,4.81
2023-02-02T00:33:48.654Z,4.84
2023-02-02T00:36:16.997Z,4.84
2023-02-02T00:38:44.866Z,4.85
2023-02-02T00:41:12.660Z,4.84
2023-02-02T00:43:40.631Z,4.87
2023-02-02T00:46:10.803Z,4.89
2023-02-02T00:48:38.878Z,4.92
2023-02-02T00:51:06.894Z,4.89
2023-02-02T00:53:34.783Z,4.90
2023-02-02T00:56:02.747Z,4.90
2023-02-02T00:58:30.560Z,4.91
2023-02-02T01:00:58.278Z,4.94
2023-02-02T01:03:26.204Z,4.95
2023-02-02T01:05:54.050Z,4.97
2023-02-02T01:08:21.888Z,4.94
2023-02-02T01:10:49.644Z,4.96
2023-02-02T01:13:17.528Z,4.95
2023-02-02T01:15:45.320Z,4.95
2023-02-02T01:18:13.132Z,4.93
2023-02-02T01:20:41.422Z,4.84
2023-02-02T01:23:09.256Z,4.79
2023-02-02T01:25:39.654Z,4.78
2023-02-02T01:28:07.578Z,4.78
2023-02-02T01:30:35.423Z,4.76
2023-02-02T01:33:03.275Z,4.78
2023-02-02T01:35:31.247Z,4.74
2023-02-02T01:37:59.016Z,4.75
2023-02-02T01:40:26.895Z,4.77
2023-02-02T01:42:54.703Z,4.78
2023-02-02T01:45:26.269Z,4.80
2023-02-02T01:47:56.888Z,4.80
2023-02-02T01:50:28.369Z,4.80
2023-02-02T01:52:56.902Z,4.80
2023-02-02T01:55:26.113Z,4.81
2023-02-02T01:58:15.801Z,4.82
2023-02-02T02:00:45.094Z,4.82
2023-02-02T02:03:16.602Z,4.84
2023-02-02T02:06:02.437Z,4.84
2023-02-02T02:08:32.065Z,4.87
2023-02-02T02:11:00.007Z,4.83
2023-02-02T02:13:48.644Z,4.81
2023-02-02T02:16:48.797Z,4.82
2023-02-02T02:19:22.591Z,4.81
2023-02-02T02:22:17.509Z,4.81
2023-02-02T02:25:32.975Z,4.80
2023-02-02T02:28:19.338Z,4.78
2023-02-02T02:30:50.344Z,4.75
2023-02-02T02:33:56.059Z,4.74
2023-02-02T02:36:34.680Z,4.69
2023-02-02T02:39:14.245Z,4.72
2023-02-02T02:41:47.541Z,4.70
2023-02-02T02:44:15.950Z,4.69
2023-02-02T02:46:44.074Z,4.71
2023-02-02T02:49:13.187Z,4.70
2023-02-02T02:51:41.060Z,4.70
2023-02-02T02:54:08.972Z,4.74
2023-02-02T02:56:58.282Z,4.77
2023-02-02T02:59:30.319Z,4.75
2023-02-02T03:02:31.607Z,4.68
2023-02-02T03:05:34.406Z,4.66
2023-02-02T03:08:33.685Z,4.64
2023-02-02T03:11:01.620Z,4.53
2023-02-02T03:13:29.455Z,4.42
2023-02-02T03:15:57.355Z,4.35
2023-02-02T03:18:29.043Z,4.31
2023-02-02T03:20:56.893Z,4.31
2023-02-02T03:23:24.763Z,4.31
2023-02-02T03:25:52.655Z,4.31
2023-02-02T03:28:20.513Z,4.27
2023-02-02T03:30:48.516Z,4.24
2023-02-02T03:33:16.449Z,4.18
2023-02-02T03:35:44.185Z,4.11
2023-02-02T03:38:13.719Z,4.02
2023-02-02T03:40:41.731Z,3.95
2023-02-02T03:43:09.527Z,3.91
2023-02-02T03:45:38.620Z,3.91
2023-02-02T03:48:06.950Z,3.88
2023-02-02T03:50:35.084Z,3.83
2023-02-02T03:53:02.845Z,3.86
2023-02-02T03:55:30.624Z,3.85
2023-02-02T03:57:58.387Z,3.86
2023-02-02T04:00:26.384Z,3.87
2023-02-02T04:02:55.143Z,3.82
2023-02-02T04:05:23.394Z,3.86
2023-02-02T04:07:51.339Z,3.81
2023-02-02T04:10:19.595Z,3.81
2023-02-02T04:12:47.658Z,3.86
2023-02-02T04:15:15.509Z,3.85
2023-02-02T04:17:43.312Z,3.86
2023-02-02T04:20:11.987Z,3.88
2023-02-02T04:22:39.829Z,3.85
2023-02-02T04:25:08.103Z,3.84
2023-02-02T04:27:35.910Z,3.85
2023-02-02T04:30:04.057Z,3.87
2023-02-02T04:32:31.816Z,3.92
2023-02-02T04:34:59.596Z,3.91
2023-02-02T04:37:27.721Z,3.94
2023-02-02T04:39:56.573Z,3.95
2023-02-02T04:42:24.413Z,3.99
2023-02-02T04:44:52.238Z,4.02
2023-02-02T04:47:20.146Z,4.04
2023-02-02T04:49:47.960Z,4.05
2023-02-02T04:52:15.743Z,4.10
2023-02-02T04:54:43.557Z,4.12
2023-02-02T04:57:11.326Z,4.13
2023-02-02T04:59:41.933Z,4.18
2023-02-02T05:02:10.437Z,4.17
2023-02-02T05:04:38.272Z,4.19
2023-02-02T05:07:06.179Z,4.22
2023-02-02T05:09:33.903Z,4.25
2023-02-02T05:12:01.707Z,4.25
2023-02-02T05:14:29.486Z,4.27
2023-02-02T05:16:57.348Z,4.26
2023-02-02T05:19:25.222Z,4.28
2023-02-02T05:21:53.069Z,4.30
2023-02-02T05:24:20.886Z,4.29
2023-02-02T05:26:48.688Z,4.27
2023-02-02T05:29:16.504Z,4.29
2023-02-02T05:31:44.202Z,4.23
2023-02-02T05:34:12.599Z,4.24
2023-02-02T05:36:40.467Z,4.18
2023-02-02T05:39:08.194Z,4.19
2023-02-02T05:41:36.001Z,4.18
2023-02-02T05:44:04.072Z,4.18
2023-02-02T05:46:31.939Z,4.22
2023-02-02T05:49:06.077Z,4.22
2023-02-02T05:52:01.250Z,4.17
2023-02-02T05:54:29.051Z,4.19
2023-02-02T05:56:58.093Z,4.23
2023-02-02T05:59:26.329Z,4.26
2023-02-02T06:01:54.166Z,4.24
2023-02-02T06:04:21.924Z,4.25
2023-02-02T06:06:49.711Z,4.27
2023-02-02T06:09:17.578Z,4.26
2023-02-02T06:11:46.030Z,4.28
2023-02-02T06:14:14.661Z,4.32
2023-02-02T06:16:42.475Z,4.36
2023-02-02T06:19:10.387Z,4.36
2023-02-02T06:21:38.333Z,4.38
2023-02-02T06:24:06.437Z,4.40
2023-02-02T06:26:34.399Z,4.39
2023-02-02T06:29:02.474Z,4.42
2023-02-02T06:31:30.408Z,4.43
2023-02-02T06:33:59.363Z,4.46
2023-02-02T06:36:27.854Z,4.48
2023-02-02T06:38:56.672Z,4.48
2023-02-02T06:41:24.766Z,4.49
2023-02-02T06:43:53.176Z,4.51
2023-02-02T06:46:21.105Z,4.54
2023-02-02T06:48:48.880Z,4.57
2023-02-02T06:51:16.769Z,4.53
2023-02-02T06:53:44.582Z,4.55
2023-02-02T06:56:13.648Z,4.56
2023-02-02T06:58:41.486Z,4.51
2023-02-02T07:01:11.151Z,4.53
2023-02-02T07:03:39.190Z,4.53
2023-02-02T07:06:15.040Z,4.46
2023-02-02T07:09:01.712Z,4.76
2023-02-02T07:11:32.987Z,4.82
2023-02-02T07:14:02.406Z,4.95
2023-02-02T07:16:30.326Z,5.16
2023-02-02T07:18:58.802Z,5.20
2023-02-02T07:21:29.433Z,5.10
2023-02-02T07:23:57.421Z,4.91
2023-02-02T07:26:25.241Z,4.88
2023-02-02T07:28:53.088Z,4.78
2023-02-02T07:31:24.996Z,4.75
2023-02-02T07:33:53.209Z,4.68
2023-02-02T07:36:22.083Z,4.69
2023-02-02T07:38:50.150Z,4.65
2023-02-02T07:41:18.196Z,4.59
2023-02-02T07:43:48.631Z,4.56
2023-02-02T07:46:16.689Z,4.50
2023-02-02T07:48:44.550Z,4.53
2023-02-02T07:51:17.076Z,4.53
2023-02-02T07:53:48.613Z,4.47
2023-02-02T07:56:21.316Z,4.49
2023-02-02T07:58:49.258Z,4.46
2023-02-02T08:01:17.639Z,4.43
2023-02-02T08:03:45.602Z,4.39
2023-02-02T08:06:19.390Z,4.41
2023-02-02T08:08:47.761Z,4.37
2023-02-02T08:11:16.774Z,4.33
2023-02-02T08:13:44.885Z,4.34
2023-02-02T08:16:13.080Z,4.33
2023-02-02T08:18:41.159Z,4.28
2023-02-02T08:21:13.291Z,4.30
2023-02-02T08:23:41.740Z,4.33
2023-02-02T08:26:14.941Z,4.36
2023-02-02T08:28:43.522Z,4.37
2023-02-02T08:31:12.121Z,4.42
2023-02-02T08:33:40.483Z,4.47
2023-02-02T08:36:19.353Z,4.48
2023-02-02T08:38:47.413Z,4.50
2023-02-02T08:41:16.761Z,4.48
2023-02-02T08:43:44.900Z,4.54
2023-02-02T08:46:14.624Z,4.55
2023-02-02T08:48:42.610Z,4.57
2023-02-02T08:51:12.418Z,4.62
2023-02-02T08:53:40.289Z,4.58
2023-02-02T08:56:13.353Z,4.61
2023-02-02T08:58:41.143Z,4.65
2023-02-02T09:01:14.270Z,4.65
2023-02-02T09:03:43.059Z,4.65
2023-02-02T09:06:15.572Z,4.65
2023-02-02T09:08:43.835Z,4.65
2023-02-02T09:11:13.337Z,4.66
2023-02-02T09:13:41.514Z,4.65
2023-02-02T09:16:11.410Z,4.65
2023-02-02T09:18:39.665Z,4.68
2023-02-02T09:21:10.738Z,4.72
2023-02-02T09:23:39.938Z,4.73
2023-02-02T09:26:14.567Z,4.77
2023-02-02T09:28:43.651Z,4.84
2023-02-02T09:31:11.659Z,4.88
2023-02-02T09:33:40.397Z,4.89
2023-02-02T09:36:10.115Z,4.88
2023-02-02T09:38:38.603Z,4.89
2023-02-02T09:41:33.804Z,4.94
2023-02-02T09:44:15.379Z,4.96
2023-02-02T09:46:56.760Z,4.99
2023-02-02T09:49:34.117Z,5.04
2023-02-02T09:52:04.818Z,5.07
2023-02-02T09:54:42.072Z,5.10
2023-02-02T09:57:25.048Z,5.06
2023-02-02T09:59:53.368Z,5.11
2023-02-02T10:02:34.644Z,5.16
2023-02-02T10:05:08.283Z,5.19
2023-02-02T10:07:39.331Z,5.22
2023-02-02T10:10:36.628Z,5.23
2023-02-02T10:13:13.198Z,5.28
2023-02-02T10:15:52.876Z,5.28
2023-02-02T10:18:47.258Z,5.26
2023-02-02T10:21:38.992Z,5.29
2023-02-02T10:24:07.062Z,5.33
2023-02-02T10:26:39.836Z,5.32
2023-02-02T10:29:23.152Z,5.32
2023-02-02T10:32:26.364Z,5.32
2023-02-02T10:35:13.645Z,5.33
2023-02-02T10:38:16.393Z,5.37
2023-02-02T10:41:00.370Z,5.39
2023-02-02T10:44:03.419Z,5.43
2023-02-02T10:46:57.605Z,5.47
2023-02-02T10:49:25.624Z,5.48
2023-02-02T10:51:59.284Z,5.43
2023-02-02T10:54:55.794Z,5.45
2023-02-02T10:57:41.181Z,5.48
2023-02-02T11:00:27.621Z,5.49
2023-02-02T11:02:55.974Z,5.55
2023-02-02T11:05:47.529Z,5.57
2023-02-02T11:08:22.619Z,5.56
2023-02-02T11:10:53.504Z,5.60
2023-02-02T11:13:28.343Z,5.61
2023-02-02T11:16:18.008Z,5.65
2023-02-02T11:18:46.139Z,5.63
2023-02-02T11:21:19.117Z,5.69
2023-02-02T11:23:54.237Z,5.67
2023-02-02T11:26:22.188Z,5.62
2023-02-02T11:28:50.599Z,5.67
2023-02-02T11:31:35.208Z,5.69
2023-02-02T11:34:29.619Z,5.71
2023-02-02T11:37:02.180Z,5.77
2023-02-02T11:39:29.988Z,5.78
2023-02-02T11:42:18.069Z,5.81
2023-02-02T11:44:49.265Z,5.80
2023-02-02T11:47:28.406Z,5.83
2023-02-02T11:49:57.909Z,5.83
2023-02-02T11:52:29.600Z,5.82
2023-02-02T11:55:03.419Z,5.83
2023-02-02T11:57:32.157Z,5.86
2023-02-02T12:00:14.686Z,5.85
2023-02-02T12:02:49.788Z,5.86
2023-02-02T12:05:20.837Z,5.90
2023-02-02T12:07:49.615Z,5.93
2023-02-02T12:10:21.435Z,5.89
2023-02-02T12:13:14.012Z,5.91
2023-02-02T12:15:55.403Z,5.94
2023-02-02T12:18:47.585Z,5.96
2023-02-02T12:21:46.969Z,5.96
2023-02-02T12:24:32.479Z,5.99
2023-02-02T12:27:10.345Z,6.01
2023-02-02T12:29:43.943Z,6.00
2023-02-02T12:32:27.816Z,6.01
2023-02-02T12:35:06.222Z,6.03
2023-02-02T12:37:52.217Z,6.04
2023-02-02T12:40:50.502Z,6.05
2023-02-02T12:43:30.260Z,6.09
2023-02-02T12:46:23.692Z,6.13
2023-02-02T12:49:01.205Z,6.11
2023-02-02T12:51:32.657Z,6.06
2023-02-02T12:54:34.546Z,6.12
2023-02-02T12:57:40.179Z,6.14
2023-02-02T13:00:29.824Z,6.16
2023-02-02T13:03:00.360Z,6.17
2023-02-02T13:05:39.160Z,6.17
2023-02-02T13:08:11.974Z,6.18
2023-02-02T13:10:48.601Z,6.22
2023-02-02T13:13:19.704Z,6.25
2023-02-02T13:16:08.279Z,6.22
2023-02-02T13:18:39.312Z,6.20
2023-02-02T13:21:09.309Z,6.20
2023-02-02T13:23:38.795Z,6.21
2023-02-02T13:26:32.147Z,6.21
2023-02-02T13:29:02.850Z,6.25
2023-02-02T13:31:55.908Z,6.26
2023-02-02T13:34:27.331Z,6.31
2023-02-02T13:37:03.177Z,6.34
2023-02-02T13:39:43.524Z,6.37
2023-02-02T13:42:21.516Z,6.40
2023-02-02T13:44:53.291Z,6.41
2023-02-02T13:47:24.441Z,6.43
2023-02-02T13:49:55.005Z,6.44
2023-02-02T13:52:53.604Z,6.46
2023-02-02T13:55:27.614Z,6.50
2023-02-02T13:58:20.546Z,6.49
2023-02-02T14:00:51.485Z,6.47
2023-02-02T14:03:39.766Z,6.48
2023-02-02T14:06:28.155Z,6.51
2023-02-02T14:09:03.515Z,6.52
2023-02-02T14:11:34.368Z,6.52
2023-02-02T14:14:36.293Z,6.53
2023-02-02T14:17:18.506Z,6.52
2023-02-02T14:19:53.130Z,6.54
2023-02-02T14:22:49.025Z,6.51
2023-02-02T14:25:34.518Z,6.53
2023-02-02T14:28:06.281Z,6.49
2023-02-02T14:30:36.009Z,6.50
2023-02-02T14:33:22.171Z,6.48
2023-02-02T14:35:49.885Z,6.43
2023-02-02T14:38:45.695Z,6.45
2023-02-02T14:41:41.687Z,6.47
2023-02-02T14:44:09.956Z,6.47
2023-02-02T14:46:41.837Z,6.45
2023-02-02T14:49:14.621Z,6.47
2023-02-02T14:51:54.383Z,6.49
2023-02-02T14:54:46.708Z,6.52
2023-02-02T14:57:28.243Z,6.52
2023-02-02T15:00:06.983Z,6.54
2023-02-02T15:02:38.866Z,6.53
2023-02-02T15:05:39.954Z,6.54
2023-02-02T15:08:27.167Z,6.54
2023-02-02T15:11:00.476Z,6.52
2023-02-02T15:13:30.411Z,6.55
2023-02-02T15:16:12.955Z,6.56
2023-02-02T15:18:44.491Z,6.57
2023-02-02T15:21:12.372Z,6.57
2023-02-02T15:23:42.744Z,6.56
2023-02-02T15:26:14.917Z,6.57
2023-02-02T15:28:42.680Z,6.58
2023-02-02T15:31:30.922Z,6.54
2023-02-02T15:34:00.960Z,6.55
2023-02-02T15:36:38.111Z,6.54
2023-02-02T15:39:15.409Z,6.56
2023-02-02T15:41:46.589Z,6.55
2023-02-02T15:44:22.077Z,6.48
2023-02-02T15:46:50.016Z,6.51
2023-02-02T15:49:32.884Z,6.47
2023-02-02T15:52:02.392Z,6.43
2023-02-02T15:54:30.160Z,6.46
2023-02-02T15:56:58.643Z,6.50
2023-02-02T15:59:28.379Z,6.49
2023-02-02T16:02:35.048Z,6.50
2023-02-02T16:05:03.079Z,6.52
2023-02-02T16:07:34.867Z,6.53
2023-02-02T16:10:05.107Z,6.52
2023-02-02T16:12:34.358Z,6.49
2023-02-02T16:15:02.374Z,6.50
2023-02-02T16:17:31.639Z,6.49
2023-02-02T16:20:10.436Z,6.48
2023-02-02T16:22:38.484Z,6.51
2023-02-02T16:25:17.731Z,6.48
2023-02-02T16:27:47.465Z,6.49
2023-02-02T16:30:29.180Z,6.49
2023-02-02T16:32:57.360Z,6.50
2023-02-02T16:35:35.161Z,6.49
2023-02-02T16:38:19.273Z,6.49
2023-02-02T16:40:49.961Z,6.49
2023-02-02T16:43:22.425Z,6.49
2023-02-02T16:46:19.571Z,6.53
2023-02-02T16:49:00.631Z,6.50
2023-02-02T16:51:29.054Z,6.51
2023-02-02T16:54:21.553Z,6.51
2023-02-02T16:56:53.310Z,6.52
2023-02-02T16:59:34.604Z,6.50
2023-02-02T17:02:23.493Z,6.49
2023-02-02T17:05:21.544Z,6.45
2023-02-02T17:07:51.506Z,6.44
2023-02-02T17:10:19.075Z,6.47
2023-02-02T17:12:46.987Z,6.49
2023-02-02T17:15:17.624Z,6.49
2023-02-02T17:17:49.394Z,6.51
2023-02-02T17:20:20.567Z,6.52
2023-02-02T17:22:56.695Z,6.52
2023-02-02T17:25:38.863Z,6.51
2023-02-02T17:28:09.039Z,6.53
2023-02-02T17:30:36.983Z,6.53
2023-02-02T17:33:05.103Z,6.55
2023-02-02T17:35:51.555Z,6.55
2023-02-02T17:38:21.926Z,6.56
2023-02-02T17:40:50.235Z,6.56
2023-02-02T17:43:18.075Z,6.53
2023-02-02T17:45:45.987Z,6.57
2023-02-02T17:48:14.473Z,6.59
2023-02-02T17:50:42.899Z,6.59
2023-02-02T17:53:21.515Z,6.57
2023-02-02T17:55:50.922Z,6.57
2023-02-02T17:58:19.165Z,6.56
2023-02-02T18:00:48.253Z,6.57
2023-02-02T18:03:34.546Z,6.57
2023-02-02T18:06:03.042Z,6.60
2023-02-02T18:08:31.475Z,6.56
2023-02-02T18:11:00.672Z,6.53
2023-02-02T18:13:28.761Z,6.52
2023-02-02T18:15:57.342Z,6.52
2023-02-02T18:18:25.204Z,6.55
2023-02-02T18:20:52.993Z,6.56
2023-02-02T18:23:20.892Z,6.58
2023-02-02T18:25:48.785Z,6.59
2023-02-02T18:28:18.493Z,6.59
2023-02-02T18:30:47.766Z,6.55
2023-02-02T18:33:15.987Z,6.56
2023-02-02T18:35:44.656Z,6.55
2023-02-02T18:38:12.522Z,6.56
2023-02-02T18:40:40.307Z,6.53
2023-02-02T18:43:08.248Z,6.55
2023-02-02T18:45:37.005Z,6.56
2023-02-02T18:48:05.184Z,6.50
2023-02-02T18:50:32.925Z,6.52
2023-02-02T18:53:00.766Z,6.53
2023-02-02T18:55:28.887Z,6.55
2023-02-02T18:57:57.149Z,6.52
2023-02-02T19:00:25.067Z,6.51
2023-02-02T19:02:52.954Z,6.51
2023-02-02T19:05:39.239Z,6.51
2023-02-02T19:08:07.276Z,6.48
2023-02-02T19:10:35.132Z,6.48
2023-02-02T19:13:16.920Z,6.49
2023-02-02T19:15:44.933Z,6.47
2023-02-02T19:18:18.623Z,6.48
2023-02-02T19:20:46.899Z,6.49
2023-02-02T19:23:19.231Z,6.49
2023-02-02T19:25:51.285Z,6.49
2023-02-02T19:28:30.940Z,6.49
2023-02-02T19:31:00.345Z,6.48
2023-02-02T19:33:37.630Z,6.48
2023-02-02T19:36:06.704Z,6.45
2023-02-02T19:38:34.532Z,6.44
2023-02-02T19:41:04.457Z,6.47
2023-02-02T19:43:32.889Z,6.45
2023-02-02T19:46:00.829Z,6.43
2023-02-02T19:48:31.081Z,6.43
2023-02-02T19:50:59.244Z,6.46
2023-02-02T19:53:32.115Z,6.45
2023-02-02T19:55:59.951Z,6.44
2023-02-02T19:58:30.063Z,6.44
2023-02-02T20:00:58.551Z,6.44
2023-02-02T20:03:35.321Z,6.43
2023-02-02T20:06:03.210Z,6.44
2023-02-02T20:08:42.950Z,6.44
2023-02-02T20:11:16.995Z,6.45
2023-02-02T20:13:49.444Z,6.43
2023-02-02T20:16:20.609Z,6.39
2023-02-02T20:18:54.949Z,6.36
2023-02-02T20:21:39.329Z,6.35
2023-02-02T20:24:26.884Z,6.33
2023-02-02T20:26:59.578Z,6.34
2023-02-02T20:29:31.026Z,6.36
2023-02-02T20:31:59.360Z,6.35
2023-02-02T20:34:30.847Z,6.35
2023-02-02T20:37:02.990Z,6.35
2023-02-02T20:39:37.317Z,6.34
2023-02-02T20:42:05.191Z,6.28
2023-02-02T20:44:33.722Z,6.30
2023-02-02T20:47:01.659Z,6.29
2023-02-02T20:49:32.762Z,6.33
2023-02-02T20:52:01.962Z,6.33
2023-02-02T20:54:30.072Z,6.31
2023-02-02T20:56:57.806Z,6.31
2023-02-02T20:59:25.619Z,6.33
2023-02-02T21:01:54.191Z,6.34
2023-02-02T21:04:22.101Z,6.34
2023-02-02T21:06:51.253Z,6.30
2023-02-02T21:09:19.210Z,6.28
2023-02-02T21:11:47.058Z,6.26
2023-02-02T21:14:15.005Z,6.22
2023-02-02T21:16:42.881Z,6.20
2023-02-02T21:19:10.822Z,6.18
2023-02-02T21:21:38.733Z,6.21
2023-02-02T21:24:07.038Z,6.25
2023-02-02T21:26:34.829Z,6.23
2023-02-02T21:29:02.594Z,6.25
2023-02-02T21:31:30.858Z,6.21
2023-02-02T21:33:58.694Z,6.17
2023-02-02T21:36:36.377Z,6.15
2023-02-02T21:39:22.731Z,6.16
2023-02-02T21:41:51.133Z,6.14
2023-02-02T21:44:20.680Z,6.12
2023-02-02T21:46:49.481Z,6.12
2023-02-02T21:49:28.904Z,6.08
2023-02-02T21:51:58.601Z,6.11
2023-02-02T21:54:28.021Z,6.09
2023-02-02T21:56:55.937Z,6.08
2023-02-02T21:59:25.263Z,6.07
2023-02-02T22:01:53.362Z,6.08
2023-02-02T22:04:23.369Z,6.07
2023-02-02T22:07:00.915Z,6.07
2023-02-02T22:09:39.859Z,6.07
2023-02-02T22:12:18.359Z,6.09
2023-02-02T22:14:46.542Z,6.11
2023-02-02T22:17:32.730Z,6.10
2023-02-02T22:20:02.452Z,6.10
2023-02-02T22:22:35.087Z,6.10
2023-02-02T22:25:29.858Z,6.07
2023-02-02T22:27:59.001Z,6.08
2023-02-02T22:30:27.100Z,6.08
2023-02-02T22:32:55.611Z,6.07
2023-02-02T22:35:23.439Z,6.06
2023-02-02T22:37:52.572Z,6.05
2023-02-02T22:40:23.546Z,6.02
2023-02-02T22:42:52.690Z,6.00
2023-02-02T22:45:20.624Z,5.98
2023-02-02T22:47:48.892Z,5.93
2023-02-02T22:50:20.653Z,5.93
2023-02-02T22:52:48.473Z,5.94
2023-02-02T22:55:16.471Z,5.86
2023-02-02T22:57:44.384Z,5.84
2023-02-02T23:00:13.944Z,5.80
2023-02-02T23:02:41.991Z,5.82
2023-02-02T23:05:11.164Z,5.85
2023-02-02T23:07:39.160Z,5.85
2023-02-02T23:10:07.971Z,5.86
2023-02-02T23:12:35.792Z,5.86
2023-02-02T23:15:03.646Z,5.86
2023-02-02T23:17:32.911Z,5.87
2023-02-02T23:20:00.808Z,5.88
2023-02-02T23:22:28.573Z,5.87
2023-02-02T23:24:56.353Z,5.87
2023-02-02T23:27:24.079Z,5.85
2023-02-02T23:29:51.877Z,5.84
2023-02-02T23:32:19.631Z,5.86
2023-02-02T23:34:47.463Z,5.85
2023-02-02T23:37:15.272Z,5.86
2023-02-02T23:39:43.014Z,5.87
2023-02-02T23:42:10.827Z,5.87
2023-02-02T23:44:38.606Z,5.86
2023-02-02T23:47:06.422Z,5.85
2023-02-02T23:49:34.330Z,5.87
2023-02-02T23:52:02.208Z,5.87
2023-02-02T23:54:30.045Z,5.84
2023-02-02T23:56:58.186Z,5.83
2023-02-02T23:59:25.935Z,5.81
